sensor_id;sensor_type;location;lat;lon;timestamp;pressure;altitude;pressure_sealevel;temperature;humidity
52923;BME280;38796;42.702;23.306;2023-02-13T00:01:22;97030.97;;;-2.86;100.00
52923;BME280;38796;42.702;23.306;2023-02-13T00:03:20;97036.19;;;-2.94;100.00
52923;BME280;38796;42.702;23.306;2023-02-13T00:05:18;97027.63;;;-2.99;100.00
52923;BME280;38796;42.702;23.306;2023-02-13T00:07:17;97037.94;;;-2.99;100.00
52923;BME280;38796;42.702;23.306;2023-02-13T00:09:15;97034.50;;;-2.98;100.00
52923;BME280;38796;42.702;23.306;2023-02-13T00:11:13;97033.63;;;-2.92;100.00
52923;BME280;38796;42.702;23.306;2023-02-13T00:13:13;97032.69;;;-2.86;100.00
52923;BME280;38796;42.702;23.306;2023-02-13T00:15:11;97036.94;;;-2.79;100.00
52923;BME280;38796;42.702;23.306;2023-02-13T00:17:10;97030.09;;;-2.82;100.00
52923;BME280;38796;42.702;23.306;2023-02-13T00:19:08;97034.41;;;-2.81;100.00
52923;BME280;38796;42.702;23.306;2023-02-13T00:21:09;97038.69;;;-2.83;100.00
52923;BME280;38796;42.702;23.306;2023-02-13T00:23:07;97031.81;;;-2.85;100.00
52923;BME280;38796;42.702;23.306;2023-02-13T00:25:06;97032.69;;;-2.83;100.00
52923;BME280;38796;42.702;23.306;2023-02-13T00:27:05;97033.53;;;-2.80;100.00
52923;BME280;38796;42.702;23.306;2023-02-13T00:29:05;97036.97;;;-2.81;100.00
52923;BME280;38796;42.702;23.306;2023-02-13T00:31:04;97030.91;;;-2.78;100.00
52923;BME280;38796;42.702;23.306;2023-02-13T00:33:03;97034.34;;;-2.73;100.00
52923;BME280;38796;42.702;23.306;2023-02-13T00:35:02;97036.91;;;-2.75;100.00
52923;BME280;38796;42.702;23.306;2023-02-13T00:37:00;97045.53;;;-2.76;100.00
52923;BME280;38796;42.702;23.306;2023-02-13T00:38:58;97043.78;;;-2.75;100.00
52923;BME280;38796;42.702;23.306;2023-02-13T00:40:57;97033.47;;;-2.75;100.00
52923;BME280;38796;42.702;23.306;2023-02-13T00:42:55;97036.94;;;-2.79;100.00
52923;BME280;38796;42.702;23.306;2023-02-13T00:44:55;97048.13;;;-2.80;100.00
52923;BME280;38796;42.702;23.306;2023-02-13T00:46:53;97047.28;;;-2.85;100.00
52923;BME280;38796;42.702;23.306;2023-02-13T00:48:52;97045.66;;;-2.94;100.00
52923;BME280;38796;42.702;23.306;2023-02-13T00:50:50;97040.53;;;-2.99;100.00
52923;BME280;38796;42.702;23.306;2023-02-13T00:52:49;97040.53;;;-3.03;100.00
52923;BME280;38796;42.702;23.306;2023-02-13T00:54:48;97041.44;;;-3.12;100.00
52923;BME280;38796;42.702;23.306;2023-02-13T00:56:47;97050.94;;;-3.17;100.00
52923;BME280;38796;42.702;23.306;2023-02-13T00:58:45;97055.22;;;-3.13;100.00
52923;BME280;38796;42.702;23.306;2023-02-13T01:00:45;97055.13;;;-2.99;100.00
52923;BME280;38796;42.702;23.306;2023-02-13T01:02:44;97058.53;;;-2.91;100.00
52923;BME280;38796;42.702;23.306;2023-02-13T01:04:43;97052.47;;;-2.84;100.00
52923;BME280;38796;42.702;23.306;2023-02-13T01:06:42;97059.28;;;-2.78;100.00
52923;BME280;38796;42.702;23.306;2023-02-13T01:08:40;97052.41;;;-2.79;100.00
52923;BME280;38796;42.702;23.306;2023-02-13T01:10:39;97049.81;;;-2.76;100.00
52923;BME280;38796;42.702;23.306;2023-02-13T01:12:38;97058.44;;;-2.77;100.00
52923;BME280;38796;42.702;23.306;2023-02-13T01:14:36;97054.09;;;-2.72;100.00
52923;BME280;38796;42.702;23.306;2023-02-13T01:16:36;97045.47;;;-2.67;100.00
52923;BME280;38796;42.702;23.306;2023-02-13T01:18:34;97052.28;;;-2.59;100.00
52923;BME280;38796;42.702;23.306;2023-02-13T01:20:33;97044.56;;;-2.62;100.00
52923;BME280;38796;42.702;23.306;2023-02-13T01:22:31;97053.16;;;-2.63;100.00
52923;BME280;38796;42.702;23.306;2023-02-13T01:24:30;97058.38;;;-2.71;100.00
52923;BME280;38796;42.702;23.306;2023-02-13T01:26:30;97060.13;;;-2.76;100.00
52923;BME280;38796;42.702;23.306;2023-02-13T01:28:28;97065.28;;;-2.78;100.00
52923;BME280;38796;42.702;23.306;2023-02-13T01:30:27;97052.41;;;-2.76;100.00
52923;BME280;38796;42.702;23.306;2023-02-13T01:32:27;97047.25;;;-2.79;100.00
52923;BME280;38796;42.702;23.306;2023-02-13T01:34:25;97054.97;;;-2.76;100.00
52923;BME280;38796;42.702;23.306;2023-02-13T01:36:24;97056.69;;;-2.74;100.00
52923;BME280;38796;42.702;23.306;2023-02-13T01:38:23;97059.19;;;-2.64;100.00
52923;BME280;38796;42.702;23.306;2023-02-13T01:40:22;97062.56;;;-2.55;100.00
52923;BME280;38796;42.702;23.306;2023-02-13T01:42:23;97058.28;;;-2.57;100.00
52923;BME280;38796;42.702;23.306;2023-02-13T01:44:45;97063.44;;;-2.56;100.00
52923;BME280;38796;42.702;23.306;2023-02-13T01:46:44;97072.00;;;-2.54;100.00
52923;BME280;38796;42.702;23.306;2023-02-13T01:48:45;97065.13;;;-2.52;100.00
52923;BME280;38796;42.702;23.306;2023-02-13T01:50:48;97069.38;;;-2.45;100.00
52923;BME280;38796;42.702;23.306;2023-02-13T01:52:50;97066.78;;;-2.45;100.00
52923;BME280;38796;42.702;23.306;2023-02-13T01:54:49;97065.03;;;-2.43;100.00
52923;BME280;38796;42.702;23.306;2023-02-13T01:56:50;97071.03;;;-2.37;100.00
52923;BME280;38796;42.702;23.306;2023-02-13T01:58:55;97080.44;;;-2.35;100.00
52923;BME280;38796;42.702;23.306;2023-02-13T02:00:55;97070.13;;;-2.30;100.00
52923;BME280;38796;42.702;23.306;2023-02-13T02:02:58;97076.09;;;-2.25;100.00
52923;BME280;38796;42.702;23.306;2023-02-13T02:05:00;97073.50;;;-2.25;100.00
52923;BME280;38796;42.702;23.306;2023-02-13T02:07:02;97072.63;;;-2.23;100.00
52923;BME280;38796;42.702;23.306;2023-02-13T02:09:06;97078.63;;;-2.21;100.00
52923;BME280;38796;42.702;23.306;2023-02-13T02:11:13;97066.63;;;-2.23;100.00
52923;BME280;38796;42.702;23.306;2023-02-13T02:13:16;97062.28;;;-2.20;100.00
52923;BME280;38796;42.702;23.306;2023-02-13T02:15:15;97056.22;;;-2.17;100.00
52923;BME280;38796;42.702;23.306;2023-02-13T02:17:14;97068.28;;;-2.19;100.00
52923;BME280;38796;42.702;23.306;2023-02-13T02:19:19;97052.81;;;-2.21;100.00
52923;BME280;38796;42.702;23.306;2023-02-13T02:21:57;97058.88;;;-2.23;100.00
52923;BME280;38796;42.702;23.306;2023-02-13T02:26:48;97064.91;;;-2.27;100.00
52923;BME280;38796;42.702;23.306;2023-02-13T02:29:07;97066.69;;;-2.32;100.00
52923;BME280;38796;42.702;23.306;2023-02-13T02:31:26;97062.44;;;-2.38;100.00
52923;BME280;38796;42.702;23.306;2023-02-13T02:33:33;97059.94;;;-2.50;100.00
52923;BME280;38796;42.702;23.306;2023-02-13T02:35:45;97064.31;;;-2.60;100.00
52923;BME280;38796;42.702;23.306;2023-02-13T02:37:58;97077.25;;;-2.64;100.00
52923;BME280;38796;42.702;23.306;2023-02-13T02:40:07;97072.97;;;-2.66;100.00
52923;BME280;38796;42.702;23.306;2023-02-13T02:42:17;97079.84;;;-2.66;100.00
52923;BME280;38796;42.702;23.306;2023-02-13T02:44:31;97081.53;;;-2.65;100.00
52923;BME280;38796;42.702;23.306;2023-02-13T02:46:36;97086.69;;;-2.62;100.00
52923;BME280;38796;42.702;23.306;2023-02-13T02:48:40;97091.00;;;-2.67;100.00
52923;BME280;38796;42.702;23.306;2023-02-13T02:51:02;97097.06;;;-2.71;100.00
52923;BME280;38796;42.702;23.306;2023-02-13T02:53:16;97090.19;;;-2.75;100.00
52923;BME280;38796;42.702;23.306;2023-02-13T02:55:27;97091.06;;;-2.76;100.00
52923;BME280;38796;42.702;23.306;2023-02-13T02:57:30;97093.69;;;-2.82;100.00
52923;BME280;38796;42.702;23.306;2023-02-13T02:59:43;97092.84;;;-2.86;100.00
52923;BME280;38796;42.702;23.306;2023-02-13T03:02:01;97095.41;;;-2.80;100.00
52923;BME280;38796;42.702;23.306;2023-02-13T03:04:23;97094.53;;;-2.82;100.00
52923;BME280;38796;42.702;23.306;2023-02-13T03:06:45;97092.84;;;-2.84;100.00
52923;BME280;38796;42.702;23.306;2023-02-13T03:08:52;97088.53;;;-2.85;100.00
52923;BME280;38796;42.702;23.306;2023-02-13T03:11:08;97087.63;;;-2.78;100.00
52923;BME280;38796;42.702;23.306;2023-02-13T03:13:35;97091.94;;;-2.76;100.00
52923;BME280;38796;42.702;23.306;2023-02-13T03:15:37;97085.91;;;-2.78;100.00
52923;BME280;38796;42.702;23.306;2023-02-13T03:17:56;97084.22;;;-2.82;100.00
52923;BME280;38796;42.702;23.306;2023-02-13T03:20:22;97091.97;;;-2.80;100.00
52923;BME280;38796;42.702;23.306;2023-02-13T03:22:54;97082.56;;;-2.87;100.00
52923;BME280;38796;42.702;23.306;2023-02-13T03:25:06;97084.28;;;-2.93;100.00
52923;BME280;38796;42.702;23.306;2023-02-13T03:27:08;97094.59;;;-2.93;100.00
52923;BME280;38796;42.702;23.306;2023-02-13T03:29:13;97092.91;;;-2.97;100.00
52923;BME280;38796;42.702;23.306;2023-02-13T03:31:37;97094.63;;;-2.96;100.00
52923;BME280;38796;42.702;23.306;2023-02-13T03:33:50;97103.19;;;-2.94;100.00
52923;BME280;38796;42.702;23.306;2023-02-13T03:36:01;97098.91;;;-2.92;100.00
52923;BME280;38796;42.702;23.306;2023-02-13T03:38:22;97100.63;;;-2.94;100.00
52923;BME280;38796;42.702;23.306;2023-02-13T03:40:26;97092.06;;;-2.99;100.00
52923;BME280;38796;42.702;23.306;2023-02-13T03:42:29;97086.91;;;-2.96;100.00
52923;BME280;38796;42.702;23.306;2023-02-13T03:44:32;97085.22;;;-3.03;100.00
52923;BME280;38796;42.702;23.306;2023-02-13T03:46:36;97095.53;;;-3.04;100.00
52923;BME280;38796;42.702;23.306;2023-02-13T03:48:36;97100.69;;;-3.04;100.00
52923;BME280;38796;42.702;23.306;2023-02-13T03:50:56;97094.69;;;-3.11;100.00
52923;BME280;38796;42.702;23.306;2023-02-13T03:53:00;97089.59;;;-3.17;100.00
52923;BME280;38796;42.702;23.306;2023-02-13T03:55:04;97093.00;;;-3.18;100.00
52923;BME280;38796;42.702;23.306;2023-02-13T03:57:23;97091.31;;;-3.22;100.00
52923;BME280;38796;42.702;23.306;2023-02-13T03:59:40;97090.47;;;-3.26;100.00
52923;BME280;38796;42.702;23.306;2023-02-13T04:01:39;97090.50;;;-3.33;100.00
52923;BME280;38796;42.702;23.306;2023-02-13T04:03:42;97095.66;;;-3.40;100.00
52923;BME280;38796;42.702;23.306;2023-02-13T04:05:44;97093.09;;;-3.43;100.00
52923;BME280;38796;42.702;23.306;2023-02-13T04:07:46;97093.16;;;-3.46;100.00
52923;BME280;38796;42.702;23.306;2023-02-13T04:09:44;97095.72;;;-3.50;100.00
52923;BME280;38796;42.702;23.306;2023-02-13T04:11:48;97090.56;;;-3.47;100.00
52923;BME280;38796;42.702;23.306;2023-02-13T04:13:52;97093.97;;;-3.44;100.00
52923;BME280;38796;42.702;23.306;2023-02-13T04:15:57;97094.00;;;-3.45;100.00
52923;BME280;38796;42.702;23.306;2023-02-13T04:18:03;97093.13;;;-3.50;100.00
52923;BME280;38796;42.702;23.306;2023-02-13T04:20:08;97097.47;;;-3.57;100.00
52923;BME280;38796;42.702;23.306;2023-02-13T04:22:07;97103.47;;;-3.61;100.00
52923;BME280;38796;42.702;23.306;2023-02-13T04:24:10;97097.41;;;-3.46;100.00
52923;BME280;38796;42.702;23.306;2023-02-13T04:26:12;97100.88;;;-3.58;100.00
52923;BME280;38796;42.702;23.306;2023-02-13T04:28:13;97107.78;;;-3.57;100.00
52923;BME280;38796;42.702;23.306;2023-02-13T04:30:13;97107.75;;;-3.58;100.00
52923;BME280;38796;42.702;23.306;2023-02-13T04:32:11;97109.47;;;-3.59;100.00
52923;BME280;38796;42.702;23.306;2023-02-13T04:34:10;97106.94;;;-3.60;100.00
52923;BME280;38796;42.702;23.306;2023-02-13T04:36:08;97106.84;;;-3.44;100.00
52923;BME280;38796;42.702;23.306;2023-02-13T04:38:06;97100.84;;;-3.35;100.00
52923;BME280;38796;42.702;23.306;2023-02-13T04:40:08;97099.97;;;-3.37;100.00
52923;BME280;38796;42.702;23.306;2023-02-13T04:42:06;97097.41;;;-3.40;100.00
52923;BME280;38796;42.702;23.306;2023-02-13T04:44:04;97097.41;;;-3.45;100.00
52923;BME280;38796;42.702;23.306;2023-02-13T04:46:03;97091.44;;;-3.50;100.00
52923;BME280;38796;42.702;23.306;2023-02-13T04:48:01;97093.16;;;-3.52;100.00
52923;BME280;38796;42.702;23.306;2023-02-13T04:50:00;97097.44;;;-3.52;100.00
52923;BME280;38796;42.702;23.306;2023-02-13T04:51:58;97094.03;;;-3.53;100.00
52923;BME280;38796;42.702;23.306;2023-02-13T04:53:57;97111.19;;;-3.49;100.00
52923;BME280;38796;42.702;23.306;2023-02-13T04:55:56;97111.16;;;-3.46;100.00
52923;BME280;38796;42.702;23.306;2023-02-13T04:57:55;97111.13;;;-3.35;100.00
52923;BME280;38796;42.702;23.306;2023-02-13T04:59:54;97114.50;;;-3.22;100.00
52923;BME280;38796;42.702;23.306;2023-02-13T05:01:52;97117.91;;;-3.09;100.00
52923;BME280;38796;42.702;23.306;2023-02-13T05:03:50;97116.16;;;-3.04;100.00
52923;BME280;38796;42.702;23.306;2023-02-13T05:05:49;97107.56;;;-3.05;100.00
52923;BME280;38796;42.702;23.306;2023-02-13T05:07:47;97124.72;;;-2.99;100.00
52923;BME280;38796;42.702;23.306;2023-02-13T05:09:45;97117.84;;;-3.02;100.00
52923;BME280;38796;42.702;23.306;2023-02-13T05:11:45;97117.84;;;-3.03;100.00
52923;BME280;38796;42.702;23.306;2023-02-13T05:13:43;97124.72;;;-3.04;100.00
52923;BME280;38796;42.702;23.306;2023-02-13T05:15:41;97120.44;;;-3.05;100.00
52923;BME280;38796;42.702;23.306;2023-02-13T05:17:42;97123.00;;;-3.03;100.00
52923;BME280;38796;42.702;23.306;2023-02-13T05:19:40;97122.97;;;-2.94;100.00
52923;BME280;38796;42.702;23.306;2023-02-13T05:21:38;97128.91;;;-2.80;100.00
52923;BME280;38796;42.702;23.306;2023-02-13T05:23:54;97128.00;;;-2.73;100.00
52923;BME280;38796;42.702;23.306;2023-02-13T05:25:52;97135.78;;;-2.77;100.00
52923;BME280;38796;42.702;23.306;2023-02-13T05:27:52;97129.78;;;-2.82;100.00
52923;BME280;38796;42.702;23.306;2023-02-13T05:29:51;97133.19;;;-2.79;100.00
52923;BME280;38796;42.702;23.306;2023-02-13T05:31:49;97130.59;;;-2.70;100.00
52923;BME280;38796;42.702;23.306;2023-02-13T05:33:48;97136.59;;;-2.69;100.00
52923;BME280;38796;42.702;23.306;2023-02-13T05:35:46;97142.63;;;-2.70;100.00
52923;BME280;38796;42.702;23.306;2023-02-13T05:37:45;97136.56;;;-2.68;100.00
52923;BME280;38796;42.702;23.306;2023-02-13T05:39:43;97142.56;;;-2.67;100.00
52923;BME280;38796;42.702;23.306;2023-02-13T05:41:41;97146.88;;;-2.66;100.00
52923;BME280;38796;42.702;23.306;2023-02-13T05:43:41;97147.75;;;-2.66;100.00
52923;BME280;38796;42.702;23.306;2023-02-13T05:45:39;97143.44;;;-2.65;100.00
52923;BME280;38796;42.702;23.306;2023-02-13T05:47:38;97147.72;;;-2.67;100.00
52923;BME280;38796;42.702;23.306;2023-02-13T05:49:36;97146.88;;;-2.66;100.00
52923;BME280;38796;42.702;23.306;2023-02-13T05:51:35;97153.75;;;-2.62;100.00
52923;BME280;38796;42.702;23.306;2023-02-13T05:53:34;97152.03;;;-2.64;100.00
52923;BME280;38796;42.702;23.306;2023-02-13T05:55:32;97153.75;;;-2.62;100.00
52923;BME280;38796;42.702;23.306;2023-02-13T05:57:31;97151.16;;;-2.59;100.00
52923;BME280;38796;42.702;23.306;2023-02-13T05:59:32;97159.75;;;-2.58;100.00
52923;BME280;38796;42.702;23.306;2023-02-13T06:01:36;97151.19;;;-2.65;100.00
52923;BME280;38796;42.702;23.306;2023-02-13T06:03:35;97156.34;;;-2.65;100.00
52923;BME280;38796;42.702;23.306;2023-02-13T06:05:34;97147.78;;;-2.70;100.00
52923;BME280;38796;42.702;23.306;2023-02-13T06:07:32;97151.25;;;-2.80;100.00
52923;BME280;38796;42.702;23.306;2023-02-13T06:09:30;97156.44;;;-2.83;100.00
52923;BME280;38796;42.702;23.306;2023-02-13T06:11:32;97165.84;;;-2.78;100.00
52923;BME280;38796;42.702;23.306;2023-02-13T06:13:30;97166.69;;;-2.73;100.00
52923;BME280;38796;42.702;23.306;2023-02-13T06:15:30;97163.25;;;-2.70;100.00
52923;BME280;38796;42.702;23.306;2023-02-13T06:17:28;97166.66;;;-2.65;100.00
52923;BME280;38796;42.702;23.306;2023-02-13T06:19:27;97168.34;;;-2.61;100.00
52923;BME280;38796;42.702;23.306;2023-02-13T06:21:26;97177.75;;;-2.54;100.00
52923;BME280;38796;42.702;23.306;2023-02-13T06:23:24;97169.97;;;-2.42;100.00
52923;BME280;38796;42.702;23.306;2023-02-13T06:25:23;97169.00;;;-2.27;100.00
52923;BME280;38796;42.702;23.306;2023-02-13T06:27:21;97175.00;;;-2.23;99.63
52923;BME280;38796;42.702;23.306;2023-02-13T06:29:19;97181.00;;;-2.23;99.34
52923;BME280;38796;42.702;23.306;2023-02-13T06:31:20;97177.44;;;-2.02;98.65
52923;BME280;38796;42.702;23.306;2023-02-13T06:33:18;97173.91;;;-1.93;97.94
52923;BME280;38796;42.702;23.306;2023-02-13T06:35:17;97169.59;;;-1.91;97.63
52923;BME280;38796;42.702;23.306;2023-02-13T06:37:16;97172.16;;;-1.89;97.73
52923;BME280;38796;42.702;23.306;2023-02-13T06:39:14;97177.34;;;-1.91;97.16
52923;BME280;38796;42.702;23.306;2023-02-13T06:41:13;97181.59;;;-1.85;97.82
52923;BME280;38796;42.702;23.306;2023-02-13T06:43:12;97182.44;;;-1.88;98.02
52923;BME280;38796;42.702;23.306;2023-02-13T06:45:10;97182.34;;;-1.73;97.91
52923;BME280;38796;42.702;23.306;2023-02-13T06:47:11;97185.59;;;-1.52;97.66
52923;BME280;38796;42.702;23.306;2023-02-13T06:49:10;97180.38;;;-1.46;96.54
52923;BME280;38796;42.702;23.306;2023-02-13T06:51:08;97169.94;;;-1.35;95.43
52923;BME280;38796;42.702;23.306;2023-02-13T06:53:07;97177.66;;;-1.34;95.80
52923;BME280;38796;42.702;23.306;2023-02-13T06:55:06;97181.00;;;-1.24;95.91
52923;BME280;38796;42.702;23.306;2023-02-13T06:57:05;97161.97;;;-1.17;95.03
52923;BME280;38796;42.702;23.306;2023-02-13T06:59:03;97168.84;;;-1.16;94.97
52923;BME280;38796;42.702;23.306;2023-02-13T07:01:02;97171.22;;;-0.96;93.93
52923;BME280;38796;42.702;23.306;2023-02-13T07:03:02;97178.09;;;-0.95;94.06
52923;BME280;38796;42.702;23.306;2023-02-13T07:05:01;97174.41;;;-0.76;93.34
52923;BME280;38796;42.702;23.306;2023-02-13T07:07:00;97167.47;;;-0.72;92.71
52923;BME280;38796;42.702;23.306;2023-02-13T07:08:59;97168.22;;;-0.64;92.24
52923;BME280;38796;42.702;23.306;2023-02-13T07:10:58;97169.84;;;-0.58;92.25
52923;BME280;38796;42.702;23.306;2023-02-13T07:12:57;97165.41;;;-0.49;92.04
52923;BME280;38796;42.702;23.306;2023-02-13T07:15:02;97167.22;;;-0.55;91.76
52923;BME280;38796;42.702;23.306;2023-02-13T07:17:00;97170.56;;;-0.47;91.94
52923;BME280;38796;42.702;23.306;2023-02-13T07:19:00;97179.22;;;-0.48;91.65
52923;BME280;38796;42.702;23.306;2023-02-13T07:20:59;97172.50;;;-0.63;91.96
52923;BME280;38796;42.702;23.306;2023-02-13T07:22:57;97187.16;;;-0.62;91.86
52923;BME280;38796;42.702;23.306;2023-02-13T07:24:57;97180.16;;;-0.55;92.13
52923;BME280;38796;42.702;23.306;2023-02-13T07:26:58;97181.19;;;-0.67;91.65
52923;BME280;38796;42.702;23.306;2023-02-13T07:28:57;97185.16;;;-0.41;91.64
52923;BME280;38796;42.702;23.306;2023-02-13T07:31:07;97182.00;;;-0.02;90.18
52923;BME280;38796;42.702;23.306;2023-02-13T07:33:08;97180.59;;;0.32;88.54
52923;BME280;38796;42.702;23.306;2023-02-13T07:35:11;97176.50;;;0.69;87.23
52923;BME280;38796;42.702;23.306;2023-02-13T07:37:09;97177.50;;;0.62;86.59
52923;BME280;38796;42.702;23.306;2023-02-13T07:39:09;97176.16;;;0.38;86.31
52923;BME280;38796;42.702;23.306;2023-02-13T07:41:07;97175.50;;;0.27;86.77
52923;BME280;38796;42.702;23.306;2023-02-13T07:43:09;97170.94;;;0.41;86.91
52923;BME280;38796;42.702;23.306;2023-02-13T07:45:08;97175.19;;;0.45;86.29
52923;BME280;38796;42.702;23.306;2023-02-13T07:47:08;97176.22;;;0.37;86.25
52923;BME280;38796;42.702;23.306;2023-02-13T07:49:07;97181.69;;;0.17;87.66
52923;BME280;38796;42.702;23.306;2023-02-13T07:51:07;97171.25;;;0.23;87.83
52923;BME280;38796;42.702;23.306;2023-02-13T07:53:06;97183.19;;;0.33;87.46
52923;BME280;38796;42.702;23.306;2023-02-13T07:55:05;97174.41;;;0.40;87.04
52923;BME280;38796;42.702;23.306;2023-02-13T07:57:04;97168.16;;;0.52;86.75
52923;BME280;38796;42.702;23.306;2023-02-13T07:59:03;97177.09;;;0.84;86.43
52923;BME280;38796;42.702;23.306;2023-02-13T08:01:07;97184.13;;;0.76;85.67
52923;BME280;38796;42.702;23.306;2023-02-13T08:03:06;97177.09;;;0.84;85.23
52923;BME280;38796;42.702;23.306;2023-02-13T08:05:08;97173.91;;;0.68;86.21
52923;BME280;38796;42.702;23.306;2023-02-13T08:07:08;97172.78;;;0.83;85.92
52923;BME280;38796;42.702;23.306;2023-02-13T08:09:07;97175.44;;;0.80;85.70
52923;BME280;38796;42.702;23.306;2023-02-13T08:11:34;97173.25;;;0.58;86.53
52923;BME280;38796;42.702;23.306;2023-02-13T08:13:51;97176.44;;;0.71;86.52
52923;BME280;38796;42.702;23.306;2023-02-13T08:15:50;97173.97;;;0.65;86.69
52923;BME280;38796;42.702;23.306;2023-02-13T08:17:49;97171.22;;;0.74;86.45
52923;BME280;38796;42.702;23.306;2023-02-13T08:19:47;97161.94;;;0.61;86.58
52923;BME280;38796;42.702;23.306;2023-02-13T08:21:47;97164.66;;;0.55;87.86
52923;BME280;38796;42.702;23.306;2023-02-13T08:23:46;97167.53;;;0.87;86.25
52923;BME280;38796;42.702;23.306;2023-02-13T08:25:48;97167.31;;;0.98;85.38
52923;BME280;38796;42.702;23.306;2023-02-13T08:27:51;97179.34;;;1.02;85.70
52923;BME280;38796;42.702;23.306;2023-02-13T08:29:49;97181.97;;;0.99;85.66
52923;BME280;38796;42.702;23.306;2023-02-13T08:31:50;97177.69;;;0.96;85.60
52923;BME280;38796;42.702;23.306;2023-02-13T08:33:49;97177.44;;;1.12;85.55
52923;BME280;38796;42.702;23.306;2023-02-13T08:35:47;97166.66;;;1.30;84.88
52923;BME280;38796;42.702;23.306;2023-02-13T08:37:45;97172.50;;;1.41;84.08
52923;BME280;38796;42.702;23.306;2023-02-13T08:39:45;97174.88;;;1.51;83.25
52923;BME280;38796;42.702;23.306;2023-02-13T08:41:44;97175.50;;;1.62;82.80
52923;BME280;38796;42.702;23.306;2023-02-13T08:43:43;97166.63;;;1.72;81.92
52923;BME280;38796;42.702;23.306;2023-02-13T08:45:41;97169.56;;;1.57;82.68
52923;BME280;38796;42.702;23.306;2023-02-13T08:47:39;97175.41;;;1.66;82.74
52923;BME280;38796;42.702;23.306;2023-02-13T08:49:38;97169.72;;;1.49;82.59
52923;BME280;38796;42.702;23.306;2023-02-13T08:51:36;97173.69;;;1.65;82.09
52923;BME280;38796;42.702;23.306;2023-02-13T08:53:35;97170.94;;;1.73;81.82
52923;BME280;38796;42.702;23.306;2023-02-13T08:55:37;97170.78;;;1.79;81.87
52923;BME280;38796;42.702;23.306;2023-02-13T08:57:35;97174.09;;;1.86;81.08
52923;BME280;38796;42.702;23.306;2023-02-13T08:59:34;97169.56;;;1.96;80.86
52923;BME280;38796;42.702;23.306;2023-02-13T09:01:32;97172.09;;;1.99;80.94
52923;BME280;38796;42.702;23.306;2023-02-13T09:03:31;97174.75;;;1.96;80.98
52923;BME280;38796;42.702;23.306;2023-02-13T09:05:29;97173.06;;;1.93;80.87
52923;BME280;38796;42.702;23.306;2023-02-13T09:07:28;97175.63;;;1.95;81.42
52923;BME280;38796;42.702;23.306;2023-02-13T09:09:26;97177.53;;;1.86;80.95
52923;BME280;38796;42.702;23.306;2023-02-13T09:11:26;97173.03;;;1.95;80.48
52923;BME280;38796;42.702;23.306;2023-02-13T09:13:25;97167.88;;;1.93;81.09
52923;BME280;38796;42.702;23.306;2023-02-13T09:15:24;97161.78;;;1.94;81.36
52923;BME280;38796;42.702;23.306;2023-02-13T09:17:22;97169.25;;;2.08;80.35
52923;BME280;38796;42.702;23.306;2023-02-13T09:19:20;97168.28;;;2.12;80.81
52923;BME280;38796;42.702;23.306;2023-02-13T09:21:20;97167.75;;;1.99;80.12
52923;BME280;38796;42.702;23.306;2023-02-13T09:23:19;97167.69;;;2.02;80.12
52923;BME280;38796;42.702;23.306;2023-02-13T09:25:17;97164.97;;;2.07;80.34
52923;BME280;38796;42.702;23.306;2023-02-13T09:27:19;97166.38;;;2.20;80.28
52923;BME280;38796;42.702;23.306;2023-02-13T09:29:17;97161.88;;;2.27;79.93
52923;BME280;38796;42.702;23.306;2023-02-13T09:31:17;97163.34;;;2.37;79.90
52923;BME280;38796;42.702;23.306;2023-02-13T09:33:16;97161.03;;;2.60;78.31
52923;BME280;38796;42.702;23.306;2023-02-13T09:35:15;97161.19;;;2.54;78.74
52923;BME280;38796;42.702;23.306;2023-02-13T09:37:13;97149.38;;;2.74;78.22
52923;BME280;38796;42.702;23.306;2023-02-13T09:39:12;97152.69;;;2.80;78.42
52923;BME280;38796;42.702;23.306;2023-02-13T09:41:12;97144.59;;;2.91;77.28
52923;BME280;38796;42.702;23.306;2023-02-13T09:43:17;97146.56;;;3.14;77.29
52923;BME280;38796;42.702;23.306;2023-02-13T09:45:21;97134.88;;;3.27;76.34
52923;BME280;38796;42.702;23.306;2023-02-13T09:47:25;97135.09;;;3.51;75.96
52923;BME280;38796;42.702;23.306;2023-02-13T09:49:27;97136.53;;;3.61;74.34
52923;BME280;38796;42.702;23.306;2023-02-13T09:51:28;97139.84;;;3.36;75.21
52923;BME280;38796;42.702;23.306;2023-02-13T09:53:28;97131.44;;;3.56;74.38
52923;BME280;38796;42.702;23.306;2023-02-13T09:55:34;97122.72;;;3.57;73.61
52923;BME280;38796;42.702;23.306;2023-02-13T09:57:42;97127.31;;;3.77;74.66
52923;BME280;38796;42.702;23.306;2023-02-13T09:59:52;97119.91;;;4.18;73.11
52923;BME280;38796;42.702;23.306;2023-02-13T10:01:54;97125.03;;;4.48;70.78
52923;BME280;38796;42.702;23.306;2023-02-13T10:04:07;97113.75;;;4.72;70.54
52923;BME280;38796;42.702;23.306;2023-02-13T10:06:14;97113.88;;;4.69;69.72
52923;BME280;38796;42.702;23.306;2023-02-13T10:08:29;97105.44;;;4.86;68.90
52923;BME280;38796;42.702;23.306;2023-02-13T10:10:35;97100.78;;;5.87;66.56
52923;BME280;38796;42.702;23.306;2023-02-13T10:12:51;97102.41;;;6.94;62.59
52923;BME280;38796;42.702;23.306;2023-02-13T10:15:02;97090.91;;;8.64;58.41
52923;BME280;38796;42.702;23.306;2023-02-13T10:17:10;97087.13;;;9.52;54.42
52923;BME280;38796;42.702;23.306;2023-02-13T10:19:17;97076.47;;;11.36;49.81
52923;BME280;38796;42.702;23.306;2023-02-13T10:21:22;97067.16;;;12.27;47.46
52923;BME280;38796;42.702;23.306;2023-02-13T10:23:24;97074.84;;;11.90;47.30
52923;BME280;38796;42.702;23.306;2023-02-13T10:25:26;97060.22;;;11.85;47.00
52923;BME280;38796;42.702;23.306;2023-02-13T10:27:28;58361.91;;;-144.19;100.00
52923;BME280;38796;42.702;23.306;2023-02-13T10:29:36;97054.06;;;11.98;46.89
52923;BME280;38796;42.702;23.306;2023-02-13T10:31:55;97053.75;;;12.30;45.63
52923;BME280;38796;42.702;23.306;2023-02-13T10:33:58;97052.13;;;11.73;46.20
52923;BME280;38796;42.702;23.306;2023-02-13T10:36:01;97043.31;;;12.41;45.11
52923;BME280;38796;42.702;23.306;2023-02-13T10:38:03;97047.44;;;12.45;44.32